Time;durP1;ratioP1;P1;durP2;ratioP2;P2;SDS_P1;SDS_P2;PMS_P1;PMS_P2;Temp;Humidity;BMP_temperature;BMP_pressure;BME280_temperature;BME280_humidity;BME280_pressure;Samples;Min_cycle;Max_cycle;Signal;HPM_P1;HPM_P2
2022/05/28 00:00:59;;;;;;;6.15;3.80;;;;;;;20.91;56.54;94701.38;5074293;28;20208;-74
2022/05/28 00:03:28;;;;;;;4.28;3.88;;;;;;;20.94;56.66;94710.94;5075255;28;20617;-73
2022/05/28 00:05:55;;;;;;;5.55;3.72;;;;;;;20.91;56.74;94708.97;5075408;28;20189;-73
2022/05/28 00:08:22;;;;;;;4.90;4.40;;;;;;;20.88;56.62;94704.25;5075513;28;20190;-74
2022/05/28 00:10:48;;;;;;;5.45;3.88;;;;;;;20.85;56.52;94685.50;5075152;28;20205;-75
2022/05/28 00:13:15;;;;;;;4.53;4.10;;;;;;;20.83;56.80;94685.13;5074696;28;20185;-75
2022/05/28 00:15:42;;;;;;;4.78;4.00;;;;;;;20.80;56.99;94686.75;5074621;28;20196;-75
2022/05/28 00:18:11;;;;;;;5.63;4.22;;;;;;;20.79;56.88;94695.59;5075444;28;20217;-75
2022/05/28 00:20:38;;;;;;;5.90;4.15;;;;;;;20.66;56.95;94682.22;5074973;28;20185;-75
2022/05/28 00:23:05;;;;;;;4.43;4.03;;;;;;;20.56;57.38;94682.41;5075228;28;20260;-75
2022/05/28 00:25:33;;;;;;;7.43;4.45;;;;;;;20.52;57.37;94676.88;5074988;28;20185;-75
2022/05/28 00:28:00;;;;;;;4.50;4.10;;;;;;;20.53;57.55;94675.66;5073943;28;20212;-75
2022/05/28 00:30:27;;;;;;;4.25;3.85;;;;;;;20.49;57.26;94680.50;5074154;28;20221;-75
2022/05/28 00:32:54;;;;;;;5.90;4.13;;;;;;;20.49;57.53;94666.47;5057578;28;20207;-75
2022/05/28 00:35:22;;;;;;;5.00;4.20;;;;;;;20.46;57.63;94656.13;5073889;28;20205;-75
2022/05/28 00:37:49;;;;;;;4.88;4.10;;;;;;;20.37;57.75;94650.28;5074825;28;20192;-75
2022/05/28 00:40:18;;;;;;;5.25;3.90;;;;;;;20.36;57.97;94649.47;5075031;28;20250;-75
2022/05/28 00:42:45;;;;;;;5.38;4.10;;;;;;;20.37;58.21;94647.47;5074145;28;20207;-75
2022/05/28 00:45:12;;;;;;;4.25;3.95;;;;;;;20.40;58.03;94643.81;5074065;28;20197;-75
2022/05/28 00:47:44;;;;;;;5.63;4.20;;;;;;;20.37;58.54;94651.09;5074680;28;20188;-74
2022/05/28 00:50:12;;;;;;;5.93;4.15;;;;;;;20.36;58.37;94648.69;5074564;28;20205;-74
2022/05/28 00:52:41;;;;;;;4.25;3.85;;;;;;;20.27;58.24;94640.84;5074113;28;20208;-74
2022/05/28 00:55:08;;;;;;;4.97;4.30;;;;;;;20.20;58.34;94641.75;5074777;28;20197;-75
2022/05/28 00:57:36;;;;;;;4.20;3.90;;;;;;;20.20;58.34;94633.38;5074532;28;20201;-76
2022/05/28 01:00:04;;;;;;;5.50;4.07;;;;;;;20.22;58.20;94638.53;5074875;28;20235;-76
2022/05/28 01:02:39;;;;;;;4.90;4.22;;;;;;;20.17;58.66;94641.81;5074024;28;20608;-75
2022/05/28 01:05:09;;;;;;;5.93;4.07;;;;;;;20.15;58.71;94663.84;5073738;28;20531;-74
2022/05/28 01:07:40;;;;;;;4.65;4.20;;;;;;;20.15;58.25;94675.84;5074121;28;20193;-74
2022/05/28 01:10:10;;;;;;;5.53;4.40;;;;;;;20.20;57.91;94675.38;5073800;28;20224;-74
2022/05/28 01:12:41;;;;;;;4.78;4.38;;;;;;;20.24;57.68;94668.91;5073949;28;20193;-74
2022/05/28 01:15:12;;;;;;;5.32;4.40;;;;;;;20.28;57.31;94673.22;5074310;28;20208;-74
2022/05/28 01:17:41;;;;;;;7.47;4.70;;;;;;;20.33;57.04;94702.75;5073753;28;20185;-74
2022/05/28 01:20:11;;;;;;;4.72;4.20;;;;;;;20.33;56.99;94739.16;5074088;28;20209;-74
2022/05/28 01:23:09;;;;;;;5.88;4.63;;;;;;;20.28;57.17;94740.44;5073348;28;20241;-74
2022/05/28 01:25:45;;;;;;;4.97;4.28;;;;;;;20.18;57.35;94725.38;5072411;28;20224;-74
2022/05/28 01:28:16;;;;;;;6.20;4.70;;;;;;;20.12;57.42;94741.09;5077224;28;20204;-74
2022/05/28 01:30:43;;;;;;;8.27;5.07;;;;;;;20.11;57.42;94742.28;5077895;28;20216;-75
2022/05/28 01:33:12;;;;;;;5.10;4.60;;;;;;;20.09;57.57;94727.94;5078104;28;20189;-75
2022/05/28 01:35:39;;;;;;;5.80;4.93;;;;;;;20.14;57.73;94733.03;5077588;28;20208;-76
2022/05/28 01:38:07;;;;;;;6.40;5.60;;;;;;;20.18;57.32;94728.19;5077779;28;20197;-74
2022/05/28 01:40:34;;;;;;;7.07;5.70;;;;;;;20.20;57.49;94739.75;5078102;28;20185;-75
2022/05/28 01:43:04;;;;;;;7.93;5.70;;;;;;;20.24;57.25;94722.91;5077632;28;20204;-75
2022/05/28 01:45:33;;;;;;;8.45;5.65;;;;;;;20.26;57.04;94717.69;5076983;28;20558;-75
2022/05/28 01:48:03;;;;;;;6.07;5.47;;;;;;;20.27;57.23;94733.25;5077661;28;20186;-76
2022/05/28 01:50:32;;;;;;;7.95;6.00;;;;;;;20.27;57.04;94733.25;5076975;28;20220;-76
2022/05/28 01:53:01;;;;;;;6.60;5.10;;;;;;;20.28;57.10;94734.06;5076647;28;20552;-75
2022/05/28 01:55:28;;;;;;;6.00;5.13;;;;;;;20.28;57.36;94722.84;5077465;28;20609;-75
2022/05/28 01:57:55;;;;;;;5.90;5.40;;;;;;;20.29;57.57;94733.63;5077611;28;20201;-75
2022/05/28 02:00:22;;;;;;;6.95;5.90;;;;;;;20.29;57.22;94732.81;5076579;28;20211;-75
2022/05/28 02:02:51;;;;;;;5.65;5.15;;;;;;;20.32;57.54;94737.59;5077565;28;20196;-75
2022/05/28 02:05:18;;;;;;;6.93;5.18;;;;;;;20.34;56.62;94733.16;5077298;28;20292;-75
2022/05/28 02:07:45;;;;;;;6.65;4.72;;;;;;;20.35;55.81;94729.13;5076389;28;20235;-75
2022/05/28 02:10:15;;;;;;;8.50;4.85;;;;;;;20.36;55.14;94719.50;5077395;28;20201;-75
2022/05/28 02:12:49;;;;;;;7.45;5.15;;;;;;;20.38;54.92;94724.69;5077550;28;20192;-75
2022/05/28 02:15:38;;;;;;;6.47;4.15;;;;;;;20.37;54.07;94720.28;5076164;28;20189;-75
2022/05/28 02:18:14;;;;;;;5.68;3.90;;;;;;;20.39;53.97;94718.66;5076728;28;20189;-75
2022/05/28 02:20:45;;;;;;;4.35;3.95;;;;;;;20.40;53.56;94713.84;5076300;28;20518;-75
2022/05/28 02:23:15;;;;;;;5.10;4.00;;;;;;;20.38;53.30;94708.69;5075865;28;20241;-75
2022/05/28 02:25:46;;;;;;;5.80;4.20;;;;;;;20.42;53.23;94715.00;5076485;28;20201;-75
2022/05/28 02:28:14;;;;;;;5.45;4.00;;;;;;;20.47;52.90;94721.34;5076083;28;20193;-75
2022/05/28 02:30:48;;;;;;;3.70;3.33;;;;;;;20.49;52.73;94711.31;5076819;28;20208;-75
2022/05/28 02:33:16;;;;;;;5.93;4.00;;;;;;;20.50;52.64;94723.31;5077140;28;20259;-75
2022/05/28 02:35:44;;;;;;;7.13;3.75;;;;;;;20.52;52.55;94718.88;5076248;28;20201;-75
2022/05/28 02:38:12;;;;;;;6.45;4.20;;;;;;;20.56;52.34;94707.63;5076435;28;20203;-75
2022/05/28 02:40:38;;;;;;;4.15;3.53;;;;;;;20.55;52.15;94692.81;5076143;28;20342;-76
2022/05/28 02:43:06;;;;;;;5.63;3.65;;;;;;;20.56;52.04;94691.59;5076017;28;20212;-76
2022/05/28 02:45:32;;;;;;;3.67;3.25;;;;;;;20.59;52.53;94696.34;5075970;28;20200;-76
2022/05/28 02:47:59;;;;;;;5.15;3.85;;;;;;;20.57;52.45;94681.19;5075916;28;20608;-76
2022/05/28 02:50:28;;;;;;;6.07;3.83;;;;;;;20.58;52.81;94679.97;5076324;28;20219;-76
2022/05/28 02:52:55;;;;;;;5.75;4.20;;;;;;;20.53;53.17;94692.44;5075620;28;20273;-75
2022/05/28 02:55:22;;;;;;;5.13;3.92;;;;;;;20.53;53.35;94708.47;5075980;28;20193;-75
2022/05/28 02:57:49;;;;;;;6.15;4.28;;;;;;;20.52;52.27;94707.69;5076290;28;20628;-75
2022/05/28 03:00:17;;;;;;;4.43;3.85;;;;;;;20.55;51.92;94695.63;5075670;28;20227;-75
2022/05/28 03:02:44;;;;;;;4.50;3.75;;;;;;;20.59;51.96;94692.78;5076269;28;20192;-75
2022/05/28 03:05:12;;;;;;;6.13;3.53;;;;;;;20.60;52.19;94689.53;5076225;28;20173;-75
2022/05/28 03:07:42;;;;;;;4.78;4.10;;;;;;;20.62;53.27;94686.28;5075685;28;20204;-75
2022/05/28 03:10:11;;;;;;;4.28;3.65;;;;;;;20.57;53.24;94687.56;5075627;28;20236;-75
2022/05/28 03:12:38;;;;;;;5.15;4.40;;;;;;;20.51;53.44;94692.06;5076279;28;20250;-75
2022/05/28 03:15:06;;;;;;;7.35;3.67;;;;;;;20.44;53.71;94701.38;5075319;28;20242;-75
2022/05/28 03:17:32;;;;;;;6.13;4.55;;;;;;;20.39;53.95;94701.84;5076206;28;20189;-75
2022/05/28 03:20:01;;;;;;;5.68;4.18;;;;;;;20.37;53.87;94703.47;5075815;28;20526;-75
2022/05/28 03:22:28;;;;;;;7.18;3.90;;;;;;;20.35;54.51;94697.53;5074792;28;20653;-75
2022/05/28 03:24:56;;;;;;;6.05;4.38;;;;;;;20.33;54.34;94695.13;5076006;28;20192;-75
2022/05/28 03:27:23;;;;;;;5.20;4.18;;;;;;;20.28;54.37;94700.44;5076066;28;20200;-75
2022/05/28 03:29:50;;;;;;;6.18;3.65;;;;;;;20.28;54.29;94694.84;5075076;28;20204;-75
2022/05/28 03:32:16;;;;;;;5.57;3.85;;;;;;;20.27;54.43;94688.47;5075676;28;20216;-76
2022/05/28 03:34:43;;;;;;;8.48;4.15;;;;;;;20.27;54.29;94694.06;5074666;28;20208;-76
2022/05/28 03:37:10;;;;;;;4.30;3.58;;;;;;;20.28;54.25;94692.03;5074917;28;20247;-76
2022/05/28 03:39:37;;;;;;;6.25;3.65;;;;;;;20.31;54.70;94696.81;5074800;28;20197;-75
2022/05/28 03:42:06;;;;;;;5.35;3.85;;;;;;;20.29;54.87;94700.00;5075791;28;20247;-76
2022/05/28 03:44:33;;;;;;;5.32;4.38;;;;;;;20.30;55.29;94693.22;5074883;28;20189;-75
2022/05/28 03:47:00;;;;;;;8.00;4.55;;;;;;;20.33;54.90;94689.53;5075596;28;20196;-75
2022/05/28 03:49:30;;;;;;;6.03;4.18;;;;;;;20.35;55.80;94686.31;5075260;28;20185;-75
2022/05/28 03:51:57;;;;;;;5.10;3.97;;;;;;;20.36;55.16;94679.50;5074868;28;20216;-75
2022/05/28 03:54:25;;;;;;;5.80;5.20;;;;;;;20.37;55.35;94669.88;5075552;28;20200;-76
2022/05/28 03:56:56;;;;;;;9.43;4.43;;;;;;;20.40;55.67;94674.63;5075182;28;20196;-76
2022/05/28 03:59:25;;;;;;;7.13;4.72;;;;;;;20.43;54.41;94668.19;5074715;28;20197;-75
2022/05/28 04:01:53;;;;;;;5.13;4.55;;;;;;;20.45;54.28;94662.97;5074669;28;20212;-75
2022/05/28 04:04:20;;;;;;;7.35;4.57;;;;;;;20.45;54.04;94668.56;5074644;28;20197;-76
2022/05/28 04:06:47;;;;;;;5.97;4.15;;;;;;;20.45;54.47;94660.16;5075407;28;20188;-76
2022/05/28 04:09:13;;;;;;;6.50;4.38;;;;;;;20.46;54.34;94666.53;5074513;28;20185;-75
2022/05/28 04:11:40;;;;;;;7.65;4.47;;;;;;;20.47;55.09;94660.50;5075295;28;20224;-75
2022/05/28 04:14:07;;;;;;;6.93;4.30;;;;;;;20.48;55.83;94662.09;5074513;28;20204;-75
2022/05/28 04:16:37;;;;;;;7.95;4.45;;;;;;;20.48;56.88;94681.72;5074237;28;20196;-75
2022/05/28 04:19:04;;;;;;;5.78;4.28;;;;;;;20.46;55.75;94712.16;5074279;28;20214;-75
2022/05/28 04:21:31;;;;;;;5.47;4.55;;;;;;;20.48;55.10;94742.53;5074173;28;20243;-75
2022/05/28 04:23:58;;;;;;;6.45;4.10;;;;;;;20.44;54.61;94732.19;5075207;28;20197;-76
2022/05/28 04:26:24;;;;;;;6.97;4.55;;;;;;;20.37;54.77;94683.88;5074326;28;20197;-75
2022/05/28 04:28:51;;;;;;;6.70;3.88;;;;;;;20.25;54.45;94662.09;5074308;28;20196;-75
2022/05/28 04:31:18;;;;;;;9.07;4.00;;;;;;;20.22;54.89;94658.13;5074381;28;20226;-75
2022/05/28 04:33:46;;;;;;;8.73;4.10;;;;;;;20.24;54.88;94638.91;5074369;28;20201;-75
2022/05/28 04:36:13;;;;;;;9.90;4.18;;;;;;;20.27;54.46;94634.47;5074260;28;20197;-75
2022/05/28 04:38:41;;;;;;;6.65;3.50;;;;;;;20.22;55.15;94644.13;5075085;28;20190;-75
2022/05/28 04:41:07;;;;;;;5.90;3.60;;;;;;;20.17;55.93;94667.81;5073779;28;20197;-76
2022/05/28 04:43:34;;;;;;;6.57;4.20;;;;;;;20.14;55.95;94673.47;5073928;28;20686;-70
2022/05/28 04:46:01;;;;;;;5.18;3.80;;;;;;;20.15;55.30;94689.03;5074485;28;20200;-75
2022/05/28 04:48:28;;;;;;;6.05;3.80;;;;;;;20.20;55.29;94696.97;5074282;28;20204;-74
2022/05/28 04:50:56;;;;;;;4.88;3.58;;;;;;;20.19;55.30;94690.59;5073590;28;20209;-74
2022/05/28 04:53:23;;;;;;;5.45;4.35;;;;;;;20.20;55.64;94699.78;5074888;28;20189;-74
2022/05/28 04:55:50;;;;;;;8.65;4.43;;;;;;;20.19;56.14;94698.19;5074634;28;20192;-74
2022/05/28 04:58:17;;;;;;;7.50;4.68;;;;;;;20.19;55.89;94698.19;5073894;28;20209;-74
2022/05/28 05:00:46;;;;;;;6.75;4.55;;;;;;;20.16;55.68;94708.22;5076445;28;20201;-74
2022/05/28 05:03:13;;;;;;;6.10;4.20;;;;;;;20.17;55.85;94718.19;5078847;28;20185;-74
2022/05/28 05:05:40;;;;;;;6.10;4.40;;;;;;;20.16;56.04;94721.44;5079113;28;20515;-75
2022/05/28 05:08:09;;;;;;;9.70;4.75;;;;;;;20.15;55.99;94715.06;5082726;28;20232;-75
2022/05/28 05:10:36;;;;;;;9.38;6.95;;;;;;;20.17;56.31;94712.59;5082944;28;20231;-76
2022/05/28 05:13:03;;;;;;;9.25;7.00;;;;;;;20.17;56.34;94712.59;5083257;28;20200;-75
2022/05/28 05:15:30;;;;;;;10.40;6.63;;;;;;;20.14;56.66;94713.44;5078124;28;20306;-72
2022/05/28 05:17:56;;;;;;;8.02;6.07;;;;;;;20.12;56.77;94710.28;5077491;28;20208;-72
2022/05/28 05:20:24;;;;;;;8.93;6.10;;;;;;;20.13;56.96;94713.88;5078194;28;20602;-71
2022/05/28 05:22:54;;;;;;;6.82;5.25;;;;;;;20.10;56.80;94723.13;5078104;28;20564;-71
2022/05/28 05:25:22;;;;;;;8.10;5.22;;;;;;;20.07;56.59;94721.16;5078409;28;20200;-71
2022/05/28 05:27:49;;;;;;;8.55;5.20;;;;;;;20.07;56.72;94726.75;5078153;28;20189;-71
2022/05/28 05:30:16;;;;;;;6.22;4.45;;;;;;;20.07;56.78;94727.56;5078292;28;20189;-71
2022/05/28 05:32:43;;;;;;;7.68;4.78;;;;;;;20.05;56.82;94740.41;5078021;28;20185;-71
2022/05/28 05:35:10;;;;;;;7.82;4.78;;;;;;;20.06;57.52;94736.38;5077758;28;20227;-71
2022/05/28 05:37:37;;;;;;;10.63;5.03;;;;;;;20.10;57.90;94734.31;5077066;28;20217;-71
2022/05/28 05:40:05;;;;;;;6.85;4.60;;;;;;;20.16;58.12;94732.63;5076807;28;20630;-72
2022/05/28 05:42:33;;;;;;;5.80;4.18;;;;;;;20.20;58.25;94739.75;5076804;28;20216;-71
2022/05/28 05:44:59;;;;;;;7.20;5.15;;;;;;;20.27;58.48;94727.66;5077898;28;20185;-71
2022/05/28 05:47:26;;;;;;;9.18;5.00;;;;;;;20.31;58.49;94727.59;5077993;28;20177;-71
2022/05/28 05:49:53;;;;;;;6.63;4.80;;;;;;;20.31;58.46;94725.59;5077027;28;20209;-71
2022/05/28 05:52:20;;;;;;;8.88;5.35;;;;;;;20.27;58.65;94722.06;5077095;28;20185;-71
2022/05/28 05:54:47;;;;;;;8.90;5.38;;;;;;;20.26;59.29;94722.47;5077791;28;20200;-71
2022/05/28 05:57:13;;;;;;;7.15;5.40;;;;;;;20.21;58.93;94715.34;5077519;28;20188;-71
2022/05/28 05:59:42;;;;;;;8.35;5.07;;;;;;;20.20;59.17;94716.56;5077561;28;20188;-72
2022/05/28 06:02:09;;;;;;;6.05;4.80;;;;;;;20.20;58.74;94714.56;5076942;28;20228;-73
2022/05/28 06:04:36;;;;;;;6.50;5.25;;;;;;;20.18;58.78;94708.56;5077563;28;20244;-73
2022/05/28 06:07:05;;;;;;;7.25;4.82;;;;;;;20.18;58.96;94697.38;5077609;28;20193;-73
2022/05/28 06:09:31;;;;;;;8.30;5.07;;;;;;;20.20;59.22;94700.56;5076389;28;20648;-73
2022/05/28 06:11:58;;;;;;;7.70;4.90;;;;;;;20.24;58.57;94689.31;5075905;28;20204;-73
2022/05/28 06:14:25;;;;;;;5.93;4.97;;;;;;;20.26;58.73;94692.47;5076690;28;20189;-73
2022/05/28 06:16:53;;;;;;;8.05;5.20;;;;;;;20.32;58.48;94693.56;5077411;28;20210;-73
2022/05/28 06:19:20;;;;;;;7.55;4.88;;;;;;;20.36;58.76;94690.72;5076992;28;20201;-73
2022/05/28 06:21:47;;;;;;;10.27;5.57;;;;;;;20.42;57.46;94684.19;5076175;28;20228;-73
2022/05/28 06:24:13;;;;;;;6.70;4.95;;;;;;;20.44;57.66;94676.16;5076369;28;20254;-73
2022/05/28 06:26:40;;;;;;;8.60;4.68;;;;;;;20.48;58.23;94681.72;5076418;28;20200;-73
2022/05/28 06:29:07;;;;;;;7.03;4.80;;;;;;;20.57;57.82;94667.97;5076052;28;20642;-73
2022/05/28 06:31:34;;;;;;;6.65;4.93;;;;;;;20.68;57.38;94673.38;5076759;28;20206;-73
2022/05/28 06:34:02;;;;;;;8.02;5.15;;;;;;;20.76;57.11;94674.03;5077167;28;20186;-73
2022/05/28 06:36:29;;;;;;;6.07;4.60;;;;;;;20.82;56.36;94670.31;5076391;28;20204;-73
2022/05/28 06:38:55;;;;;;;7.60;4.60;;;;;;;20.87;56.90;94680.22;5076088;28;20205;-73
2022/05/28 06:41:22;;;;;;;5.95;4.90;;;;;;;20.95;56.30;94672.47;5076426;28;20228;-73
2022/05/28 06:43:49;;;;;;;6.35;5.20;;;;;;;20.98;56.55;94660.41;5077001;28;20189;-72
2022/05/28 06:46:16;;;;;;;7.80;4.70;;;;;;;21.02;56.54;94656.31;5076128;28;20200;-71
2022/05/28 06:48:43;;;;;;;7.07;5.40;;;;;;;21.06;57.34;94653.44;5075584;28;20196;-71
2022/05/28 06:51:11;;;;;;;6.20;5.10;;;;;;;21.13;57.37;94647.69;5076755;28;20204;-71
2022/05/28 06:53:40;;;;;;;7.25;5.65;;;;;;;21.16;56.67;94639.19;5076663;28;20511;-69
2022/05/28 06:56:07;;;;;;;9.10;5.35;;;;;;;21.19;56.87;94633.97;5076047;28;20212;-71
2022/05/28 06:58:35;;;;;;;9.38;5.25;;;;;;;21.21;56.33;94635.13;5076698;28;20223;-71
2022/05/28 07:01:02;;;;;;;6.55;5.80;;;;;;;21.23;56.08;94632.66;5075460;28;20211;-70
2022/05/28 07:03:30;;;;;;;9.25;5.57;;;;;;;21.29;56.08;94633.75;5076050;28;20215;-71
2022/05/28 07:05:57;;;;;;;7.78;6.07;;;;;;;21.35;56.82;94626.44;5076389;28;20189;-71
2022/05/28 07:08:26;;;;;;;11.73;6.57;;;;;;;21.43;56.88;94621.47;5075669;28;20251;-71
2022/05/28 07:10:56;;;;;;;10.00;6.28;;;;;;;21.49;57.04;94614.09;5076303;28;20201;-70
2022/05/28 07:13:23;;;;;;;6.45;5.68;;;;;;;21.53;56.61;94608.41;5075355;28;20278;-72
2022/05/28 07:15:51;;;;;;;7.95;5.68;;;;;;;21.60;56.74;94614.63;5076324;28;20185;-72
2022/05/28 07:18:18;;;;;;;8.55;6.28;;;;;;;21.66;56.71;94605.72;5076430;28;20205;-72
2022/05/28 07:20:45;;;;;;;6.97;5.70;;;;;;;21.71;57.14;94608.00;5075882;28;20185;-72
2022/05/28 07:23:13;;;;;;;8.90;6.00;;;;;;;21.75;57.19;94611.50;5075188;28;20240;-72
2022/05/28 07:25:42;;;;;;;10.70;6.63;;;;;;;21.80;56.97;94608.97;5076041;28;20182;-72
2022/05/28 07:28:29;;;;;;;7.22;6.43;;;;;;;21.84;56.54;94604.06;5075038;28;20224;-71
2022/05/28 07:30:57;;;;;;;8.35;6.38;;;;;;;21.92;56.47;94607.50;5075979;28;20286;-72
2022/05/28 07:33:25;;;;;;;6.40;5.82;;;;;;;21.97;56.14;94597.75;5075346;28;20193;-70
2022/05/28 07:35:53;;;;;;;8.32;6.18;;;;;;;22.01;55.74;94595.66;5075036;28;20211;-72
2022/05/28 07:38:20;;;;;;;7.85;6.30;;;;;;;22.04;55.66;94601.19;5075252;28;20357;-72
2022/05/28 07:40:48;;;;;;;10.27;8.25;;;;;;;22.09;55.43;94600.66;5075080;28;20228;-71
2022/05/28 07:43:15;;;;;;;9.80;6.78;;;;;;;22.13;54.33;94600.56;5074488;28;20668;-71
2022/05/28 07:45:44;;;;;;;8.95;6.05;;;;;;;22.17;53.15;94606.13;5075687;28;20575;-70
2022/05/28 07:48:12;;;;;;;8.00;5.60;;;;;;;22.28;53.02;94601.03;5075326;28;20605;-70
2022/05/28 07:50:39;;;;;;;10.18;5.70;;;;;;;22.38;53.27;94602.00;5075227;28;20200;-73
2022/05/28 07:53:07;;;;;;;6.30;5.28;;;;;;;22.43;52.49;94602.25;5075725;28;20181;-73
2022/05/28 07:55:34;;;;;;;8.30;5.35;;;;;;;22.50;52.15;94604.06;5075254;28;20200;-73
2022/05/28 07:58:07;;;;;;;9.02;5.90;;;;;;;22.57;51.15;94593.44;5074380;28;20208;-73
2022/05/28 08:00:38;;;;;;;8.70;5.18;;;;;;;22.61;51.58;94593.34;5074773;28;20246;-73
2022/05/28 08:03:05;;;;;;;7.00;5.10;;;;;;;22.74;50.97;94593.41;5075623;28;20622;-73
2022/05/28 08:05:32;;;;;;;5.50;4.95;;;;;;;22.81;50.76;94593.22;5074720;28;20194;-73
2022/05/28 08:07:59;;;;;;;9.68;5.95;;;;;;;22.85;50.96;94588.28;5074809;28;20193;-73
2022/05/28 08:10:26;;;;;;;8.35;5.70;;;;;;;22.86;50.86;94580.63;5074978;28;20189;-73
2022/05/28 08:12:52;;;;;;;5.50;4.82;;;;;;;22.88;51.58;94578.97;5074230;28;20196;-73
2022/05/28 08:15:21;;;;;;;9.75;6.63;;;;;;;22.92;51.66;94579.66;5074654;28;20258;-73
2022/05/28 08:17:47;;;;;;;19.38;10.65;;;;;;;22.99;53.43;94579.47;5074440;28;20196;-73
2022/05/28 08:20:14;;;;;;;14.50;9.18;;;;;;;23.14;51.84;94587.50;5075253;28;20204;-73
2022/05/28 08:25:25;;;;;;;13.02;9.07;;;;;;;23.22;53.23;94571.97;5075436;28;20177;-73
2022/05/28 08:27:51;;;;;;;9.23;7.13;;;;;;;23.24;53.97;94578.75;5075530;28;20189;-73
2022/05/28 08:30:20;;;;;;;14.13;7.80;;;;;;;23.23;54.32;94577.16;5074383;28;20201;-73
2022/05/28 08:32:47;;;;;;;14.93;7.95;;;;;;;23.25;54.68;94571.88;5075220;28;20196;-73
2022/05/28 08:35:14;;;;;;;24.52;14.18;;;;;;;23.28;55.00;94573.00;5073604;28;20193;-73
2022/05/28 08:37:40;;;;;;;13.45;8.90;;;;;;;23.33;55.83;94568.84;5075204;28;20195;-72
2022/05/28 08:40:08;;;;;;;19.52;11.55;;;;;;;23.44;57.21;94575.72;5074763;28;20552;-72
2022/05/28 08:42:36;;;;;;;11.15;7.82;;;;;;;23.52;56.36;94576.28;5075140;28;20215;-72
2022/05/28 08:45:05;;;;;;;10.50;7.93;;;;;;;23.63;56.13;94573.16;5074668;28;20611;-71
2022/05/28 08:47:38;;;;;;;13.32;9.07;;;;;;;23.67;55.46;94569.00;5075012;28;20196;-71
2022/05/28 08:50:07;;;;;;;14.70;9.27;;;;;;;23.76;56.03;94571.16;5074995;28;20185;-71
2022/05/28 08:52:38;;;;;;;17.02;9.52;;;;;;;23.89;56.08;94569.09;5073646;28;20204;-71
2022/05/28 08:55:08;;;;;;;13.60;7.97;;;;;;;23.96;54.98;94562.47;5074553;28;20189;-71
2022/05/28 08:57:46;;;;;;;9.25;6.57;;;;;;;24.02;55.31;94567.09;5074843;28;20181;-72
2022/05/28 09:00:16;;;;;;;8.57;6.60;;;;;;;24.09;55.06;94565.28;5074068;28;20199;-71
2022/05/28 09:02:47;;;;;;;11.07;8.40;;;;;;;24.15;54.36;94560.66;5074798;28;20216;-71
2022/05/28 09:05:21;;;;;;;11.68;7.22;;;;;;;24.25;54.27;94563.09;5073911;28;20197;-71
2022/05/28 09:07:49;;;;;;;7.97;7.18;;;;;;;24.38;54.74;94568.72;5074802;28;20518;-71
2022/05/28 09:10:16;;;;;;;15.20;7.85;;;;;;;24.46;54.08;94555.19;5074808;28;20192;-71
2022/05/28 09:12:46;;;;;;;11.38;6.50;;;;;;;24.46;52.68;94555.97;5073858;28;20201;-71
2022/05/28 09:15:13;;;;;;;10.07;6.97;;;;;;;24.48;52.79;94553.50;5074421;28;20624;-71
2022/05/28 09:17:42;;;;;;;8.68;6.72;;;;;;;24.57;53.28;94547.13;5073866;28;20197;-72
2022/05/28 09:20:13;;;;;;;10.73;6.78;;;;;;;24.60;52.15;94537.00;5073803;28;20209;-72
2022/05/28 09:22:40;;;;;;;8.63;7.03;;;;;;;24.59;52.27;94533.38;5073506;28;20232;-72
2022/05/28 09:25:08;;;;;;;9.50;7.57;;;;;;;24.63;52.75;94527.63;5073629;28;20189;-72
2022/05/28 09:27:40;;;;;;;12.00;6.97;;;;;;;24.64;53.07;94529.19;5074135;28;20506;-71
2022/05/28 09:30:14;;;;;;;10.30;6.35;;;;;;;24.63;52.40;94522.75;5074765;28;20200;-71
2022/05/28 09:32:55;;;;;;;9.27;6.10;;;;;;;24.57;51.38;94523.81;5073661;28;20250;-71
2022/05/28 09:35:27;;;;;;;8.60;5.55;;;;;;;24.59;52.23;94522.09;5074483;28;20200;-71
2022/05/28 09:37:58;;;;;;;6.20;5.60;;;;;;;24.62;50.44;94529.66;5074707;28;20531;-73
2022/05/28 09:40:33;;;;;;;11.07;6.65;;;;;;;24.57;50.87;94513.31;5074391;28;20193;-70
2022/05/28 09:43:19;;;;;;;9.68;6.03;;;;;;;24.60;51.05;94517.25;5075639;28;20250;-72
2022/05/28 09:45:51;;;;;;;10.02;6.25;;;;;;;24.60;51.62;94508.78;5073524;28;20205;-69
2022/05/28 09:48:19;;;;;;;11.98;6.38;;;;;;;24.62;51.85;94501.47;5076821;28;20209;-70
2022/05/28 09:50:47;;;;;;;8.23;6.25;;;;;;;24.63;51.53;94496.59;5077068;28;20273;-69
2022/05/28 09:56:11;;;;;;;10.32;6.03;;;;;;;24.53;49.74;94492.91;5076766;28;20201;-71
2022/05/28 09:58:40;;;;;;;8.50;5.72;;;;;;;24.47;50.82;94492.72;5078070;28;20196;-74
2022/05/28 10:01:11;;;;;;;10.00;5.82;;;;;;;24.47;50.25;94484.28;5076897;28;20601;-74
2022/05/28 10:06:27;;;;;;;10.88;5.82;;;;;;;24.46;51.18;94490.34;5076461;28;20185;-74
2022/05/28 10:08:54;;;;;;;10.07;5.95;;;;;;;24.47;50.77;94489.09;5076623;28;20224;-74
2022/05/28 10:11:22;;;;;;;9.68;6.40;;;;;;;24.48;51.36;94485.06;5077644;28;20189;-74
2022/05/28 10:13:51;;;;;;;10.68;6.28;;;;;;;24.49;51.84;94476.13;5076317;28;20254;-74
2022/05/28 10:16:20;;;;;;;8.32;6.18;;;;;;;24.55;52.23;94476.34;5077441;28;20287;-74
2022/05/28 10:18:52;;;;;;;9.52;6.53;;;;;;;24.61;52.09;94473.72;5076501;28;20189;-74
2022/05/28 10:21:22;;;;;;;8.63;6.20;;;;;;;24.67;50.95;94466.25;5077122;28;20212;-73
2022/05/28 10:23:54;;;;;;;10.13;6.40;;;;;;;24.72;50.73;94462.81;5076284;28;20217;-73
2022/05/28 10:26:22;;;;;;;9.95;5.97;;;;;;;24.76;51.26;94459.88;5076996;28;20193;-73
2022/05/28 10:28:51;;;;;;;8.05;5.97;;;;;;;24.86;52.78;94458.69;5076387;28;20189;-74
2022/05/28 10:31:20;;;;;;;8.40;6.47;;;;;;;25.01;50.03;94453.28;5076948;28;20189;-74
2022/05/28 10:33:48;;;;;;;10.20;6.25;;;;;;;25.01;49.84;94456.09;5076152;28;20201;-74
2022/05/28 10:36:17;;;;;;;8.75;5.70;;;;;;;25.03;50.46;94457.22;5077111;28;20189;-74
2022/05/28 10:38:45;;;;;;;10.10;6.05;;;;;;;25.13;50.00;94447.59;5076178;28;20185;-74
2022/05/28 10:41:18;;;;;;;10.50;6.55;;;;;;;25.21;49.85;94446.06;5076155;28;20501;-75
2022/05/28 10:43:45;;;;;;;9.88;6.57;;;;;;;25.37;49.58;94439.38;5077092;28;20219;-73
2022/05/28 10:46:25;;;;;;;9.13;6.55;;;;;;;25.55;48.92;94433.00;5076658;28;20499;-73
2022/05/28 10:49:08;;;;;;;10.07;6.38;;;;;;;25.70;48.72;94441.69;5076856;28;20215;-73
2022/05/28 10:51:44;;;;;;;11.30;6.25;;;;;;;25.95;49.19;94437.06;5076695;28;20181;-73
2022/05/28 10:54:20;;;;;;;9.57;6.13;;;;;;;26.12;47.59;94441.94;5076702;28;20185;-73
2022/05/28 10:56:56;;;;;;;7.03;6.32;;;;;;;26.21;47.20;94429.84;5076361;28;20218;-73
2022/05/28 10:59:39;;;;;;;8.40;7.00;;;;;;;26.30;46.47;94437.56;5075842;28;20205;-73
2022/05/28 11:02:18;;;;;;;9.75;7.18;;;;;;;26.37;46.43;94425.94;5076503;28;20197;-73
2022/05/28 11:04:50;;;;;;;11.48;7.82;;;;;;;26.38;47.10;94430.34;5076497;28;20181;-73
2022/05/28 11:07:44;;;;;;;8.75;7.05;;;;;;;26.31;47.62;94422.94;5076170;28;20648;-73
2022/05/28 11:10:25;;;;;;;10.30;6.78;;;;;;;26.21;46.11;94421.38;5070043;28;20212;-73
2022/05/28 11:13:01;;;;;;;8.88;6.88;;;;;;;26.08;46.49;94420.75;5076143;28;20182;-73
2022/05/28 11:15:38;;;;;;;10.05;7.07;;;;;;;26.02;46.94;94419.81;5075942;28;20232;-73
2022/05/28 11:18:20;;;;;;;8.65;7.20;;;;;;;25.90;47.21;94411.00;5075822;28;20232;-73
2022/05/28 11:20:52;;;;;;;9.85;7.07;;;;;;;25.84;47.90;94412.09;5075321;28;20196;-73
2022/05/28 11:23:40;;;;;;;8.75;7.43;;;;;;;25.72;46.91;94402.47;5075616;28;20233;-74
2022/05/28 11:26:17;;;;;;;9.50;6.60;;;;;;;25.61;47.05;94394.44;5075193;28;20204;-73
2022/05/28 11:29:13;;;;;;;8.65;6.93;;;;;;;25.52;48.43;94390.81;5076173;28;20189;-73
2022/05/28 11:31:44;;;;;;;10.70;6.85;;;;;;;25.44;47.68;94395.97;5075715;28;20640;-73
2022/05/28 11:34:14;;;;;;;9.73;7.22;;;;;;;25.35;47.71;94391.09;5075988;28;20177;-73
2022/05/28 11:36:43;;;;;;;8.10;6.22;;;;;;;25.28;47.64;94388.56;5075062;28;20272;-73
2022/05/28 11:39:18;;;;;;;10.45;6.15;;;;;;;25.21;47.38;94388.84;5074990;28;20224;-73
2022/05/28 11:41:49;;;;;;;13.45;6.32;;;;;;;25.13;47.19;94382.69;5075858;28;20185;-73
2022/05/28 11:44:23;;;;;;;7.82;6.20;;;;;;;25.06;47.46;94385.00;5075019;28;20213;-73
2022/05/28 11:46:55;;;;;;;9.13;6.65;;;;;;;25.01;48.09;94377.91;5075709;28;20193;-73
2022/05/28 11:52:13;;;;;;;10.52;6.80;;;;;;;24.91;47.73;94377.09;5074538;28;20343;-74